sensor_id;sensor_type;location;lat;lon;timestamp;P1;durP1;ratioP1;P2;durP2;ratioP2
48627;SDS011;34424;52.234;6.500;2024-03-17T00:04:53;16.6;;;10;;
48627;SDS011;34424;52.234;6.500;2024-03-17T00:09:52;18.6;;;10.2;;
48627;SDS011;34424;52.234;6.500;2024-03-17T00:14:52;13.9;;;7.8;;
48627;SDS011;34424;52.234;6.500;2024-03-17T00:19:51;8.8;;;5.6;;
48627;SDS011;34424;52.234;6.500;2024-03-17T00:24:51;10.8;;;5.1;;
48627;SDS011;34424;52.234;6.500;2024-03-17T00:29:50;10.2;;;4.9;;
48627;SDS011;34424;52.234;6.500;2024-03-17T00:34:50;9;;;5;;
48627;SDS011;34424;52.234;6.500;2024-03-17T00:39:49;10.9;;;5.4;;
48627;SDS011;34424;52.234;6.500;2024-03-17T00:44:49;7.1;;;4.9;;
48627;SDS011;34424;52.234;6.500;2024-03-17T00:49:48;9.7;;;5.5;;
48627;SDS011;34424;52.234;6.500;2024-03-17T00:54:50;9.8;;;6.3;;
48627;SDS011;34424;52.234;6.500;2024-03-17T00:59:47;12.2;;;6.9;;
48627;SDS011;34424;52.234;6.500;2024-03-17T01:04:47;9.5;;;6.9;;
48627;SDS011;34424;52.234;6.500;2024-03-17T01:09:46;11.1;;;6.2;;
48627;SDS011;34424;52.234;6.500;2024-03-17T01:14:45;9.2;;;6.2;;
48627;SDS011;34424;52.234;6.500;2024-03-17T01:19:45;8.9;;;6;;
48627;SDS011;34424;52.234;6.500;2024-03-17T01:24:44;9.8;;;5.8;;
48627;SDS011;34424;52.234;6.500;2024-03-17T01:29:44;9.1;;;6.2;;
48627;SDS011;34424;52.234;6.500;2024-03-17T01:34:43;11.2;;;5.9;;
48627;SDS011;34424;52.234;6.500;2024-03-17T01:39:43;10.7;;;6.2;;
48627;SDS011;34424;52.234;6.500;2024-03-17T01:44:42;10;;;5.6;;
48627;SDS011;34424;52.234;6.500;2024-03-17T01:49:42;9.6;;;5.7;;
48627;SDS011;34424;52.234;6.500;2024-03-17T01:54:41;9.8;;;5.6;;
48627;SDS011;34424;52.234;6.500;2024-03-17T01:59:41;12;;;6.3;;
48627;SDS011;34424;52.234;6.500;2024-03-17T02:04:40;8.5;;;5.7;;
48627;SDS011;34424;52.234;6.500;2024-03-17T02:09:40;11.4;;;6.3;;
48627;SDS011;34424;52.234;6.500;2024-03-17T02:14:39;11.8;;;6.8;;
48627;SDS011;34424;52.234;6.500;2024-03-17T02:19:38;10.7;;;7.5;;
48627;SDS011;34424;52.234;6.500;2024-03-17T02:24:38;12.9;;;7.5;;
48627;SDS011;34424;52.234;6.500;2024-03-17T02:29:37;13.1;;;7.5;;
48627;SDS011;34424;52.234;6.500;2024-03-17T02:34:37;10.9;;;7.4;;
48627;SDS011;34424;52.234;6.500;2024-03-17T02:39:36;11.5;;;7.3;;
48627;SDS011;34424;52.234;6.500;2024-03-17T02:44:36;11.8;;;8.6;;
48627;SDS011;34424;52.234;6.500;2024-03-17T02:49:35;12.2;;;8.1;;
48627;SDS011;34424;52.234;6.500;2024-03-17T02:54:35;16.9;;;8.1;;
48627;SDS011;34424;52.234;6.500;2024-03-17T02:59:34;13.6;;;7.6;;
48627;SDS011;34424;52.234;6.500;2024-03-17T03:04:34;11.7;;;7.5;;
48627;SDS011;34424;52.234;6.500;2024-03-17T03:09:33;13.7;;;8.3;;
48627;SDS011;34424;52.234;6.500;2024-03-17T03:14:33;10.1;;;7.8;;
48627;SDS011;34424;52.234;6.500;2024-03-17T03:19:32;15.7;;;8.5;;
48627;SDS011;34424;52.234;6.500;2024-03-17T03:24:31;12;;;7.9;;
48627;SDS011;34424;52.234;6.500;2024-03-17T03:29:31;12.4;;;7.7;;
48627;SDS011;34424;52.234;6.500;2024-03-17T03:34:30;16.9;;;9.6;;
48627;SDS011;34424;52.234;6.500;2024-03-17T03:39:30;14.5;;;9;;
48627;SDS011;34424;52.234;6.500;2024-03-17T03:44:29;15.4;;;9.3;;
48627;SDS011;34424;52.234;6.500;2024-03-17T03:49:29;17.2;;;9.3;;
48627;SDS011;34424;52.234;6.500;2024-03-17T03:54:28;19.1;;;10.4;;
48627;SDS011;34424;52.234;6.500;2024-03-17T03:59:28;19.1;;;10.6;;
48627;SDS011;34424;52.234;6.500;2024-03-17T04:04:27;21.8;;;10.8;;
48627;SDS011;34424;52.234;6.500;2024-03-17T04:09:27;18;;;10.6;;
48627;SDS011;34424;52.234;6.500;2024-03-17T04:14:26;16.8;;;11.2;;
48627;SDS011;34424;52.234;6.500;2024-03-17T04:19:26;18;;;11;;
48627;SDS011;34424;52.234;6.500;2024-03-17T04:24:26;19.7;;;11.2;;
48627;SDS011;34424;52.234;6.500;2024-03-17T04:29:25;19.5;;;11.9;;
48627;SDS011;34424;52.234;6.500;2024-03-17T04:34:25;19.3;;;11.2;;
48627;SDS011;34424;52.234;6.500;2024-03-17T04:39:24;16.3;;;10.8;;
48627;SDS011;34424;52.234;6.500;2024-03-17T04:44:24;17.9;;;10.6;;
48627;SDS011;34424;52.234;6.500;2024-03-17T04:49:23;17;;;10.8;;
48627;SDS011;34424;52.234;6.500;2024-03-17T04:54:23;20;;;11.5;;
48627;SDS011;34424;52.234;6.500;2024-03-17T04:59:22;15.7;;;10.9;;
48627;SDS011;34424;52.234;6.500;2024-03-17T05:04:22;17.1;;;11.5;;
48627;SDS011;34424;52.234;6.500;2024-03-17T05:09:22;17;;;11.2;;
48627;SDS011;34424;52.234;6.500;2024-03-17T05:14:21;17.5;;;11.1;;
48627;SDS011;34424;52.234;6.500;2024-03-17T05:19:21;15.1;;;10.3;;
48627;SDS011;34424;52.234;6.500;2024-03-17T05:24:20;16.3;;;11.1;;
48627;SDS011;34424;52.234;6.500;2024-03-17T05:29:20;17;;;11.2;;
48627;SDS011;34424;52.234;6.500;2024-03-17T05:34:19;15.5;;;10.6;;
48627;SDS011;34424;52.234;6.500;2024-03-17T05:39:19;17;;;10.8;;
48627;SDS011;34424;52.234;6.500;2024-03-17T05:44:18;17.5;;;10.7;;
48627;SDS011;34424;52.234;6.500;2024-03-17T05:49:18;15.3;;;11.3;;
48627;SDS011;34424;52.234;6.500;2024-03-17T05:54:18;18.5;;;11.6;;
48627;SDS011;34424;52.234;6.500;2024-03-17T05:59:17;17.6;;;11.4;;
48627;SDS011;34424;52.234;6.500;2024-03-17T06:04:17;17.5;;;11.7;;
48627;SDS011;34424;52.234;6.500;2024-03-17T06:09:16;18.1;;;12.2;;
48627;SDS011;34424;52.234;6.500;2024-03-17T06:14:16;19.7;;;12.4;;
48627;SDS011;34424;52.234;6.500;2024-03-17T06:19:15;16.8;;;12.3;;
48627;SDS011;34424;52.234;6.500;2024-03-17T06:24:15;14.8;;;12.4;;
48627;SDS011;34424;52.234;6.500;2024-03-17T06:29:15;16.2;;;11.5;;
48627;SDS011;34424;52.234;6.500;2024-03-17T06:34:14;17.4;;;12.9;;
48627;SDS011;34424;52.234;6.500;2024-03-17T06:39:14;15.5;;;12.9;;
48627;SDS011;34424;52.234;6.500;2024-03-17T06:44:13;14.3;;;11.9;;
48627;SDS011;34424;52.234;6.500;2024-03-17T06:49:13;16.1;;;11.9;;
48627;SDS011;34424;52.234;6.500;2024-03-17T06:54:13;14.6;;;11.8;;
48627;SDS011;34424;52.234;6.500;2024-03-17T06:59:12;16.4;;;13.3;;
48627;SDS011;34424;52.234;6.500;2024-03-17T07:04:12;17.1;;;13.2;;
48627;SDS011;34424;52.234;6.500;2024-03-17T07:09:12;17.4;;;13.6;;
48627;SDS011;34424;52.234;6.500;2024-03-17T07:14:11;16.8;;;13;;
48627;SDS011;34424;52.234;6.500;2024-03-17T07:19:11;15.4;;;13.1;;
48627;SDS011;34424;52.234;6.500;2024-03-17T07:24:11;15;;;12.6;;
48627;SDS011;34424;52.234;6.500;2024-03-17T07:29:10;16.8;;;13.3;;
48627;SDS011;34424;52.234;6.500;2024-03-17T07:34:10;14.4;;;11.8;;
48627;SDS011;34424;52.234;6.500;2024-03-17T07:39:10;14.9;;;12.3;;
48627;SDS011;34424;52.234;6.500;2024-03-17T07:44:09;17;;;12.8;;
48627;SDS011;34424;52.234;6.500;2024-03-17T07:49:09;18.2;;;12.4;;
48627;SDS011;34424;52.234;6.500;2024-03-17T07:54:09;13.6;;;12;;
48627;SDS011;34424;52.234;6.500;2024-03-17T07:59:09;14.4;;;11.9;;
48627;SDS011;34424;52.234;6.500;2024-03-17T08:04:09;14.4;;;10.9;;
48627;SDS011;34424;52.234;6.500;2024-03-17T08:09:08;15;;;10.5;;
48627;SDS011;34424;52.234;6.500;2024-03-17T08:14:08;13.1;;;9.8;;
48627;SDS011;34424;52.234;6.500;2024-03-17T08:19:08;11.2;;;9.8;;
48627;SDS011;34424;52.234;6.500;2024-03-17T08:24:08;11.4;;;9;;
48627;SDS011;34424;52.234;6.500;2024-03-17T08:29:08;11.5;;;8.7;;
48627;SDS011;34424;52.234;6.500;2024-03-17T08:34:08;9.6;;;7.4;;
48627;SDS011;34424;52.234;6.500;2024-03-17T08:39:08;10.7;;;8.2;;
48627;SDS011;34424;52.234;6.500;2024-03-17T08:44:08;9.1;;;7.7;;
48627;SDS011;34424;52.234;6.500;2024-03-17T08:49:08;10.1;;;7.9;;
48627;SDS011;34424;52.234;6.500;2024-03-17T08:54:08;8.2;;;7.2;;
48627;SDS011;34424;52.234;6.500;2024-03-17T08:59:08;10.4;;;7.8;;
48627;SDS011;34424;52.234;6.500;2024-03-17T09:04:08;9.1;;;7.4;;
48627;SDS011;34424;52.234;6.500;2024-03-17T09:09:08;8.8;;;7.2;;
48627;SDS011;34424;52.234;6.500;2024-03-17T09:14:08;10.7;;;7.6;;
48627;SDS011;34424;52.234;6.500;2024-03-17T09:19:08;9.5;;;7.7;;
48627;SDS011;34424;52.234;6.500;2024-03-17T09:24:08;8.7;;;7.4;;
48627;SDS011;34424;52.234;6.500;2024-03-17T09:29:07;8;;;6.9;;
48627;SDS011;34424;52.234;6.500;2024-03-17T09:34:07;9.5;;;7;;
48627;SDS011;34424;52.234;6.500;2024-03-17T09:39:07;9.4;;;6.8;;
48627;SDS011;34424;52.234;6.500;2024-03-17T09:44:09;7.7;;;6.4;;
48627;SDS011;34424;52.234;6.500;2024-03-17T09:49:08;6.7;;;5.8;;
48627;SDS011;34424;52.234;6.500;2024-03-17T09:54:09;9.9;;;6.2;;
48627;SDS011;34424;52.234;6.500;2024-03-17T09:59:08;7.1;;;5.9;;
48627;SDS011;34424;52.234;6.500;2024-03-17T10:04:08;7.9;;;6.2;;
48627;SDS011;34424;52.234;6.500;2024-03-17T10:09:08;7.1;;;6.1;;
48627;SDS011;34424;52.234;6.500;2024-03-17T10:14:08;8.4;;;6.2;;
48627;SDS011;34424;52.234;6.500;2024-03-17T10:19:11;9.3;;;6.4;;
48627;SDS011;34424;52.234;6.500;2024-03-17T10:24:09;8.7;;;6.4;;
48627;SDS011;34424;52.234;6.500;2024-03-17T10:29:08;8.8;;;6.4;;
48627;SDS011;34424;52.234;6.500;2024-03-17T10:34:09;10.4;;;7.1;;
48627;SDS011;34424;52.234;6.500;2024-03-17T10:39:08;8.7;;;6.6;;
48627;SDS011;34424;52.234;6.500;2024-03-17T10:44:08;8.2;;;6.5;;
48627;SDS011;34424;52.234;6.500;2024-03-17T10:49:08;8.7;;;6.9;;
48627;SDS011;34424;52.234;6.500;2024-03-17T10:54:08;8.6;;;7.2;;
48627;SDS011;34424;52.234;6.500;2024-03-17T10:59:08;10.7;;;7.9;;
48627;SDS011;34424;52.234;6.500;2024-03-17T11:04:08;8.6;;;7;;
48627;SDS011;34424;52.234;6.500;2024-03-17T11:09:07;8.5;;;7.4;;
48627;SDS011;34424;52.234;6.500;2024-03-17T11:19:12;9.5;;;7.8;;
48627;SDS011;34424;52.234;6.500;2024-03-17T11:24:08;7.8;;;6.9;;
48627;SDS011;34424;52.234;6.500;2024-03-17T11:29:23;9.1;;;7.3;;
48627;SDS011;34424;52.234;6.500;2024-03-17T11:34:07;8.3;;;7.4;;
48627;SDS011;34424;52.234;6.500;2024-03-17T11:39:07;8.7;;;7.6;;
48627;SDS011;34424;52.234;6.500;2024-03-17T11:44:18;8.3;;;6.4;;
48627;SDS011;34424;52.234;6.500;2024-03-17T11:49:07;8;;;5.9;;
48627;SDS011;34424;52.234;6.500;2024-03-17T11:54:07;9.6;;;6.5;;
48627;SDS011;34424;52.234;6.500;2024-03-17T11:59:07;7.2;;;6;;
48627;SDS011;34424;52.234;6.500;2024-03-17T12:04:07;7.2;;;6;;
48627;SDS011;34424;52.234;6.500;2024-03-17T12:09:16;6.5;;;5.3;;
48627;SDS011;34424;52.234;6.500;2024-03-17T12:14:21;8.5;;;5.8;;
48627;SDS011;34424;52.234;6.500;2024-03-17T12:19:09;7.4;;;6;;
48627;SDS011;34424;52.234;6.500;2024-03-17T12:24:06;6.8;;;5.6;;
48627;SDS011;34424;52.234;6.500;2024-03-17T12:29:06;6.4;;;5.1;;
48627;SDS011;34424;52.234;6.500;2024-03-17T12:34:06;8.9;;;6;;
48627;SDS011;34424;52.234;6.500;2024-03-17T12:39:13;6.7;;;5.6;;
48627;SDS011;34424;52.234;6.500;2024-03-17T12:44:07;7.7;;;6;;
48627;SDS011;34424;52.234;6.500;2024-03-17T12:49:06;7.5;;;6.4;;
48627;SDS011;34424;52.234;6.500;2024-03-17T12:54:15;7;;;5.5;;
48627;SDS011;34424;52.234;6.500;2024-03-17T12:59:08;6.6;;;5.4;;
48627;SDS011;34424;52.234;6.500;2024-03-17T13:04:08;6.5;;;5.8;;
48627;SDS011;34424;52.234;6.500;2024-03-17T13:09:06;9;;;5.9;;
48627;SDS011;34424;52.234;6.500;2024-03-17T13:14:06;8.5;;;5.6;;
48627;SDS011;34424;52.234;6.500;2024-03-17T13:19:05;7.9;;;5.8;;
48627;SDS011;34424;52.234;6.500;2024-03-17T13:24:06;7.8;;;6;;
48627;SDS011;34424;52.234;6.500;2024-03-17T13:29:05;8.8;;;6.7;;
48627;SDS011;34424;52.234;6.500;2024-03-17T13:34:05;8.4;;;6.8;;
48627;SDS011;34424;52.234;6.500;2024-03-17T13:39:05;9.1;;;6.5;;
48627;SDS011;34424;52.234;6.500;2024-03-17T13:44:05;8.2;;;6.7;;
48627;SDS011;34424;52.234;6.500;2024-03-17T13:49:10;7.1;;;6.2;;
48627;SDS011;34424;52.234;6.500;2024-03-17T13:54:05;8.9;;;6.2;;
48627;SDS011;34424;52.234;6.500;2024-03-17T13:59:05;10.8;;;6.4;;
48627;SDS011;34424;52.234;6.500;2024-03-17T14:04:05;7.4;;;6.5;;
48627;SDS011;34424;52.234;6.500;2024-03-17T14:09:05;7.7;;;6.6;;
48627;SDS011;34424;52.234;6.500;2024-03-17T14:19:05;7.1;;;6.3;;
48627;SDS011;34424;52.234;6.500;2024-03-17T14:24:05;8.1;;;7;;
48627;SDS011;34424;52.234;6.500;2024-03-17T14:29:05;7.3;;;6.2;;
48627;SDS011;34424;52.234;6.500;2024-03-17T14:34:04;9.7;;;6.8;;
48627;SDS011;34424;52.234;6.500;2024-03-17T14:39:04;8.4;;;6.4;;
48627;SDS011;34424;52.234;6.500;2024-03-17T14:44:04;8.3;;;6.8;;
48627;SDS011;34424;52.234;6.500;2024-03-17T14:49:04;9.2;;;6.8;;
48627;SDS011;34424;52.234;6.500;2024-03-17T14:54:04;7.9;;;6.7;;
48627;SDS011;34424;52.234;6.500;2024-03-17T14:59:04;10.4;;;6.7;;
48627;SDS011;34424;52.234;6.500;2024-03-17T15:04:04;7.3;;;6.5;;
48627;SDS011;34424;52.234;6.500;2024-03-17T15:09:05;9.6;;;6.4;;
48627;SDS011;34424;52.234;6.500;2024-03-17T15:14:04;8.1;;;6.5;;
48627;SDS011;34424;52.234;6.500;2024-03-17T15:19:04;8.4;;;6.5;;
48627;SDS011;34424;52.234;6.500;2024-03-17T15:24:04;10;;;7;;
48627;SDS011;34424;52.234;6.500;2024-03-17T15:29:03;7.8;;;6.4;;
48627;SDS011;34424;52.234;6.500;2024-03-17T15:34:03;8.3;;;6.4;;
48627;SDS011;34424;52.234;6.500;2024-03-17T15:39:03;8.4;;;6.7;;
48627;SDS011;34424;52.234;6.500;2024-03-17T15:44:03;8.2;;;6.9;;
48627;SDS011;34424;52.234;6.500;2024-03-17T15:49:03;9.9;;;7.8;;
48627;SDS011;34424;52.234;6.500;2024-03-17T15:54:03;8.2;;;6.4;;
48627;SDS011;34424;52.234;6.500;2024-03-17T15:59:03;7.8;;;6.1;;
48627;SDS011;34424;52.234;6.500;2024-03-17T16:04:03;7.8;;;6.4;;
48627;SDS011;34424;52.234;6.500;2024-03-17T16:09:02;10;;;7.2;;
48627;SDS011;34424;52.234;6.500;2024-03-17T16:14:02;7.8;;;6.1;;
48627;SDS011;34424;52.234;6.500;2024-03-17T16:19:03;8.9;;;7.5;;
48627;SDS011;34424;52.234;6.500;2024-03-17T16:24:04;9;;;6.9;;
48627;SDS011;34424;52.234;6.500;2024-03-17T16:29:02;10.1;;;7.5;;
48627;SDS011;34424;52.234;6.500;2024-03-17T16:34:02;8.6;;;7.1;;
48627;SDS011;34424;52.234;6.500;2024-03-17T16:39:02;10;;;7.3;;
48627;SDS011;34424;52.234;6.500;2024-03-17T16:44:03;11.3;;;8.6;;
48627;SDS011;34424;52.234;6.500;2024-03-17T16:49:01;10.8;;;8.1;;
48627;SDS011;34424;52.234;6.500;2024-03-17T16:54:01;10.1;;;8;;
48627;SDS011;34424;52.234;6.500;2024-03-17T16:59:01;10.4;;;7.7;;
48627;SDS011;34424;52.234;6.500;2024-03-17T17:04:01;11.9;;;7.7;;
48627;SDS011;34424;52.234;6.500;2024-03-17T17:09:01;12;;;8.6;;
48627;SDS011;34424;52.234;6.500;2024-03-17T17:14:01;11;;;8.7;;
48627;SDS011;34424;52.234;6.500;2024-03-17T17:19:02;11.9;;;8.4;;
48627;SDS011;34424;52.234;6.500;2024-03-17T17:24:00;10.9;;;8.1;;
48627;SDS011;34424;52.234;6.500;2024-03-17T17:29:01;10.2;;;8;;
48627;SDS011;34424;52.234;6.500;2024-03-17T17:34:00;12.4;;;8.5;;
48627;SDS011;34424;52.234;6.500;2024-03-17T17:39:00;10.8;;;8.1;;
48627;SDS011;34424;52.234;6.500;2024-03-17T17:44:00;10.9;;;8;;
48627;SDS011;34424;52.234;6.500;2024-03-17T17:48:59;9;;;7.7;;
48627;SDS011;34424;52.234;6.500;2024-03-17T17:53:59;10;;;7.9;;
48627;SDS011;34424;52.234;6.500;2024-03-17T17:58:59;10.9;;;8;;
48627;SDS011;34424;52.234;6.500;2024-03-17T18:03:59;10.1;;;7.8;;
48627;SDS011;34424;52.234;6.500;2024-03-17T18:08:59;9.4;;;7.8;;
48627;SDS011;34424;52.234;6.500;2024-03-17T18:13:59;15.8;;;11.2;;
48627;SDS011;34424;52.234;6.500;2024-03-17T18:18:58;11.6;;;8.5;;
48627;SDS011;34424;52.234;6.500;2024-03-17T18:23:58;9.4;;;8.1;;
48627;SDS011;34424;52.234;6.500;2024-03-17T18:28:58;11.7;;;8.7;;
48627;SDS011;34424;52.234;6.500;2024-03-17T18:33:58;11.1;;;7.7;;
48627;SDS011;34424;52.234;6.500;2024-03-17T18:38:58;10.7;;;8;;
48627;SDS011;34424;52.234;6.500;2024-03-17T18:43:57;10.2;;;7.9;;
48627;SDS011;34424;52.234;6.500;2024-03-17T18:48:57;11.9;;;8.9;;
48627;SDS011;34424;52.234;6.500;2024-03-17T18:53:57;17.2;;;11.2;;
48627;SDS011;34424;52.234;6.500;2024-03-17T18:58:57;29.1;;;17.3;;
48627;SDS011;34424;52.234;6.500;2024-03-17T19:03:57;14;;;9.9;;
48627;SDS011;34424;52.234;6.500;2024-03-17T19:08:56;13.8;;;10.1;;
48627;SDS011;34424;52.234;6.500;2024-03-17T19:13:56;14.9;;;10.4;;
48627;SDS011;34424;52.234;6.500;2024-03-17T19:18:56;14.3;;;10.8;;
48627;SDS011;34424;52.234;6.500;2024-03-17T19:23:56;19;;;13.2;;
48627;SDS011;34424;52.234;6.500;2024-03-17T19:28:55;15.3;;;11.7;;
48627;SDS011;34424;52.234;6.500;2024-03-17T19:33:55;14;;;10.7;;
48627;SDS011;34424;52.234;6.500;2024-03-17T19:38:55;16.8;;;12.2;;
48627;SDS011;34424;52.234;6.500;2024-03-17T19:43:55;16.3;;;11.8;;
48627;SDS011;34424;52.234;6.500;2024-03-17T19:48:55;16.3;;;12.9;;
48627;SDS011;34424;52.234;6.500;2024-03-17T19:53:54;17.5;;;12.5;;
48627;SDS011;34424;52.234;6.500;2024-03-17T19:58:54;14.5;;;10.5;;
48627;SDS011;34424;52.234;6.500;2024-03-17T20:03:54;13.5;;;9.8;;
48627;SDS011;34424;52.234;6.500;2024-03-17T20:08:54;15.6;;;13;;
48627;SDS011;34424;52.234;6.500;2024-03-17T20:13:53;13.7;;;10;;
48627;SDS011;34424;52.234;6.500;2024-03-17T20:18:54;13.2;;;10.8;;
48627;SDS011;34424;52.234;6.500;2024-03-17T20:23:53;13.6;;;11.2;;
48627;SDS011;34424;52.234;6.500;2024-03-17T20:28:53;13.4;;;10.6;;
48627;SDS011;34424;52.234;6.500;2024-03-17T20:33:53;12.4;;;10.8;;
48627;SDS011;34424;52.234;6.500;2024-03-17T20:38:52;12.2;;;10.6;;
48627;SDS011;34424;52.234;6.500;2024-03-17T20:43:52;13.9;;;11.4;;
48627;SDS011;34424;52.234;6.500;2024-03-17T20:48:52;15;;;11.9;;
48627;SDS011;34424;52.234;6.500;2024-03-17T20:53:52;13.8;;;10.7;;
48627;SDS011;34424;52.234;6.500;2024-03-17T20:58:51;14.3;;;10.8;;
48627;SDS011;34424;52.234;6.500;2024-03-17T21:03:51;17.2;;;12;;
48627;SDS011;34424;52.234;6.500;2024-03-17T21:08:51;15.7;;;13.3;;
48627;SDS011;34424;52.234;6.500;2024-03-17T21:13:51;17.2;;;12.4;;
48627;SDS011;34424;52.234;6.500;2024-03-17T21:18:51;13.1;;;10.7;;
48627;SDS011;34424;52.234;6.500;2024-03-17T21:23:50;17.3;;;11.6;;
48627;SDS011;34424;52.234;6.500;2024-03-17T21:28:50;16;;;12.4;;
48627;SDS011;34424;52.234;6.500;2024-03-17T21:33:50;16.4;;;12.6;;
48627;SDS011;34424;52.234;6.500;2024-03-17T21:38:50;16.4;;;12.8;;
48627;SDS011;34424;52.234;6.500;2024-03-17T21:43:49;18.1;;;13.5;;
48627;SDS011;34424;52.234;6.500;2024-03-17T21:48:49;15.5;;;13.4;;
48627;SDS011;34424;52.234;6.500;2024-03-17T21:53:49;16.9;;;13.8;;
48627;SDS011;34424;52.234;6.500;2024-03-17T21:58:49;16.9;;;13.5;;
48627;SDS011;34424;52.234;6.500;2024-03-17T22:03:48;18.1;;;14.7;;
48627;SDS011;34424;52.234;6.500;2024-03-17T22:08:48;19.3;;;14.6;;
48627;SDS011;34424;52.234;6.500;2024-03-17T22:13:50;19.5;;;14.9;;
48627;SDS011;34424;52.234;6.500;2024-03-17T22:18:48;18.8;;;14.5;;
48627;SDS011;34424;52.234;6.500;2024-03-17T22:23:47;20.5;;;15.9;;
48627;SDS011;34424;52.234;6.500;2024-03-17T22:28:47;17.6;;;13.8;;
48627;SDS011;34424;52.234;6.500;2024-03-17T22:33:47;18.3;;;13.5;;
48627;SDS011;34424;52.234;6.500;2024-03-17T22:38:47;18.7;;;13.1;;
48627;SDS011;34424;52.234;6.500;2024-03-17T22:43:46;15.9;;;14.1;;
48627;SDS011;34424;52.234;6.500;2024-03-17T22:48:46;15.9;;;12.8;;
48627;SDS011;34424;52.234;6.500;2024-03-17T22:53:46;17.3;;;13.5;;
48627;SDS011;34424;52.234;6.500;2024-03-17T22:58:46;17.4;;;12.2;;
48627;SDS011;34424;52.234;6.500;2024-03-17T23:03:45;17.1;;;12.8;;
48627;SDS011;34424;52.234;6.500;2024-03-17T23:08:45;14.5;;;12.1;;
48627;SDS011;34424;52.234;6.500;2024-03-17T23:13:45;16.6;;;13.3;;
48627;SDS011;34424;52.234;6.500;2024-03-17T23:18:45;16.5;;;13.1;;
48627;SDS011;34424;52.234;6.500;2024-03-17T23:23:45;14.6;;;12.1;;
48627;SDS011;34424;52.234;6.500;2024-03-17T23:28:44;14.7;;;12.2;;
48627;SDS011;34424;52.234;6.500;2024-03-17T23:33:44;15.3;;;12.1;;
48627;SDS011;34424;52.234;6.500;2024-03-17T23:38:44;13.7;;;11.9;;
48627;SDS011;34424;52.234;6.500;2024-03-17T23:43:44;16.8;;;12.6;;
48627;SDS011;34424;52.234;6.500;2024-03-17T23:48:43;15.8;;;12.3;;
48627;SDS011;34424;52.234;6.500;2024-03-17T23:53:43;14.9;;;12.4;;
48627;SDS011;34424;52.234;6.500;2024-03-17T23:58:43;16.2;;;12.7;;
